sensor_id;sensor_type;location;lat;lon;timestamp;P1;durP1;ratioP1;P2;durP2;ratioP2
12597;SDS011;6364;53.590;9.956;2022-08-19T00:00:05;18.05;;;12.98;;
12597;SDS011;6364;53.590;9.956;2022-08-19T00:02:32;17.92;;;11.57;;
12597;SDS011;6364;53.590;9.956;2022-08-19T00:04:58;17.85;;;11.23;;
12597;SDS011;6364;53.590;9.956;2022-08-19T00:07:23;15.20;;;11.50;;
12597;SDS011;6364;53.590;9.956;2022-08-19T00:09:48;16.27;;;11.02;;
12597;SDS011;6364;53.590;9.956;2022-08-19T00:12:14;16.23;;;12.70;;
12597;SDS011;6364;53.590;9.956;2022-08-19T00:14:39;20.40;;;12.32;;
12597;SDS011;6364;53.590;9.956;2022-08-19T00:17:05;19.50;;;12.27;;
12597;SDS011;6364;53.590;9.956;2022-08-19T00:19:32;24.75;;;16.65;;
12597;SDS011;6364;53.590;9.956;2022-08-19T00:21:57;30.77;;;21.45;;
12597;SDS011;6364;53.590;9.956;2022-08-19T00:24:23;29.25;;;21.95;;
12597;SDS011;6364;53.590;9.956;2022-08-19T00:26:49;36.40;;;24.90;;
12597;SDS011;6364;53.590;9.956;2022-08-19T00:29:16;38.22;;;24.60;;
12597;SDS011;6364;53.590;9.956;2022-08-19T00:31:44;34.28;;;22.77;;
12597;SDS011;6364;53.590;9.956;2022-08-19T00:34:10;37.42;;;25.33;;
12597;SDS011;6364;53.590;9.956;2022-08-19T00:36:37;37.17;;;25.73;;
12597;SDS011;6364;53.590;9.956;2022-08-19T00:39:03;43.00;;;28.15;;
12597;SDS011;6364;53.590;9.956;2022-08-19T00:41:29;38.45;;;26.55;;
12597;SDS011;6364;53.590;9.956;2022-08-19T00:43:59;47.60;;;30.73;;
12597;SDS011;6364;53.590;9.956;2022-08-19T00:46:29;46.78;;;29.02;;
12597;SDS011;6364;53.590;9.956;2022-08-19T00:48:56;44.40;;;29.90;;
12597;SDS011;6364;53.590;9.956;2022-08-19T00:51:23;42.95;;;29.52;;
12597;SDS011;6364;53.590;9.956;2022-08-19T00:53:52;45.10;;;28.67;;
12597;SDS011;6364;53.590;9.956;2022-08-19T00:56:19;45.90;;;27.13;;
12597;SDS011;6364;53.590;9.956;2022-08-19T00:58:44;45.67;;;30.05;;
12597;SDS011;6364;53.590;9.956;2022-08-19T01:01:10;47.97;;;30.33;;
12597;SDS011;6364;53.590;9.956;2022-08-19T01:03:35;43.60;;;29.45;;
12597;SDS011;6364;53.590;9.956;2022-08-19T01:06:01;47.70;;;28.35;;
12597;SDS011;6364;53.590;9.956;2022-08-19T01:08:27;49.38;;;28.35;;
12597;SDS011;6364;53.590;9.956;2022-08-19T01:10:53;46.22;;;27.80;;
12597;SDS011;6364;53.590;9.956;2022-08-19T01:13:21;41.83;;;25.13;;
12597;SDS011;6364;53.590;9.956;2022-08-19T01:15:50;40.92;;;25.77;;
12597;SDS011;6364;53.590;9.956;2022-08-19T01:18:19;39.60;;;22.98;;
12597;SDS011;6364;53.590;9.956;2022-08-19T01:20:45;41.55;;;25.23;;
12597;SDS011;6364;53.590;9.956;2022-08-19T01:23:11;37.05;;;24.05;;
12597;SDS011;6364;53.590;9.956;2022-08-19T01:25:44;36.97;;;23.73;;
12597;SDS011;6364;53.590;9.956;2022-08-19T01:28:30;34.60;;;23.13;;
12597;SDS011;6364;53.590;9.956;2022-08-19T01:30:55;40.35;;;24.33;;
12597;SDS011;6364;53.590;9.956;2022-08-19T01:33:21;37.92;;;24.35;;
12597;SDS011;6364;53.590;9.956;2022-08-19T01:35:46;33.83;;;24.13;;
12597;SDS011;6364;53.590;9.956;2022-08-19T01:38:23;35.42;;;23.13;;
12597;SDS011;6364;53.590;9.956;2022-08-19T01:40:51;37.08;;;22.50;;
12597;SDS011;6364;53.590;9.956;2022-08-19T01:43:17;37.05;;;23.00;;
12597;SDS011;6364;53.590;9.956;2022-08-19T01:45:44;33.97;;;23.35;;
12597;SDS011;6364;53.590;9.956;2022-08-19T01:48:09;37.63;;;24.20;;
12597;SDS011;6364;53.590;9.956;2022-08-19T01:50:35;32.47;;;23.67;;
12597;SDS011;6364;53.590;9.956;2022-08-19T01:53:03;35.90;;;23.30;;
12597;SDS011;6364;53.590;9.956;2022-08-19T01:55:30;40.13;;;24.52;;
12597;SDS011;6364;53.590;9.956;2022-08-19T01:57:56;45.72;;;26.25;;
12597;SDS011;6364;53.590;9.956;2022-08-19T02:00:23;41.75;;;25.58;;
12597;SDS011;6364;53.590;9.956;2022-08-19T02:02:50;40.03;;;26.17;;
12597;SDS011;6364;53.590;9.956;2022-08-19T02:05:15;41.80;;;26.00;;
12597;SDS011;6364;53.590;9.956;2022-08-19T02:07:42;43.58;;;26.00;;
12597;SDS011;6364;53.590;9.956;2022-08-19T02:10:10;43.72;;;26.40;;
12597;SDS011;6364;53.590;9.956;2022-08-19T02:12:38;45.90;;;27.23;;
12597;SDS011;6364;53.590;9.956;2022-08-19T02:15:03;42.42;;;25.33;;
12597;SDS011;6364;53.590;9.956;2022-08-19T02:17:29;51.05;;;25.73;;
12597;SDS011;6364;53.590;9.956;2022-08-19T02:19:55;41.85;;;24.50;;
12597;SDS011;6364;53.590;9.956;2022-08-19T02:22:21;49.22;;;26.75;;
12597;SDS011;6364;53.590;9.956;2022-08-19T02:24:47;46.72;;;26.08;;
12597;SDS011;6364;53.590;9.956;2022-08-19T02:27:13;48.15;;;27.33;;
12597;SDS011;6364;53.590;9.956;2022-08-19T02:29:39;48.83;;;25.73;;
12597;SDS011;6364;53.590;9.956;2022-08-19T02:32:04;47.75;;;26.48;;
12597;SDS011;6364;53.590;9.956;2022-08-19T02:34:29;47.35;;;26.67;;
12597;SDS011;6364;53.590;9.956;2022-08-19T02:36:55;54.78;;;27.65;;
12597;SDS011;6364;53.590;9.956;2022-08-19T02:39:20;44.40;;;24.75;;
12597;SDS011;6364;53.590;9.956;2022-08-19T02:41:45;50.08;;;27.00;;
12597;SDS011;6364;53.590;9.956;2022-08-19T02:44:11;51.40;;;27.17;;
12597;SDS011;6364;53.590;9.956;2022-08-19T02:46:37;61.50;;;29.20;;
12597;SDS011;6364;53.590;9.956;2022-08-19T02:49:03;53.05;;;27.75;;
12597;SDS011;6364;53.590;9.956;2022-08-19T02:51:31;53.42;;;27.48;;
12597;SDS011;6364;53.590;9.956;2022-08-19T02:54:03;51.72;;;28.38;;
12597;SDS011;6364;53.590;9.956;2022-08-19T02:56:29;56.42;;;29.90;;
12597;SDS011;6364;53.590;9.956;2022-08-19T02:58:56;57.65;;;29.48;;
12597;SDS011;6364;53.590;9.956;2022-08-19T03:01:31;56.63;;;30.10;;
12597;SDS011;6364;53.590;9.956;2022-08-19T03:03:58;59.47;;;29.63;;
12597;SDS011;6364;53.590;9.956;2022-08-19T03:06:25;68.30;;;30.65;;
12597;SDS011;6364;53.590;9.956;2022-08-19T03:08:51;61.95;;;29.60;;
12597;SDS011;6364;53.590;9.956;2022-08-19T03:11:19;64.13;;;30.23;;
12597;SDS011;6364;53.590;9.956;2022-08-19T03:13:49;68.70;;;32.35;;
12597;SDS011;6364;53.590;9.956;2022-08-19T03:16:15;79.13;;;33.83;;
12597;SDS011;6364;53.590;9.956;2022-08-19T03:18:42;71.03;;;31.55;;
12597;SDS011;6364;53.590;9.956;2022-08-19T03:21:07;77.20;;;34.58;;
12597;SDS011;6364;53.590;9.956;2022-08-19T03:23:33;84.13;;;34.75;;
12597;SDS011;6364;53.590;9.956;2022-08-19T03:26:02;79.75;;;32.83;;
12597;SDS011;6364;53.590;9.956;2022-08-19T03:28:29;80.13;;;33.67;;
12597;SDS011;6364;53.590;9.956;2022-08-19T03:30:56;66.07;;;30.65;;
12597;SDS011;6364;53.590;9.956;2022-08-19T03:33:24;72.15;;;30.30;;
12597;SDS011;6364;53.590;9.956;2022-08-19T03:36:32;71.88;;;31.77;;
12597;SDS011;6364;53.590;9.956;2022-08-19T03:38:40;60.45;;;29.90;;
12597;SDS011;6364;53.590;9.956;2022-08-19T03:41:08;64.28;;;29.77;;
12597;SDS011;6364;53.590;9.956;2022-08-19T03:43:37;64.32;;;27.83;;
12597;SDS011;6364;53.590;9.956;2022-08-19T03:46:04;63.80;;;29.60;;
12597;SDS011;6364;53.590;9.956;2022-08-19T03:48:31;61.55;;;28.30;;
12597;SDS011;6364;53.590;9.956;2022-08-19T03:50:57;65.57;;;27.80;;
12597;SDS011;6364;53.590;9.956;2022-08-19T03:53:24;63.08;;;28.77;;
12597;SDS011;6364;53.590;9.956;2022-08-19T03:55:50;61.03;;;28.52;;
12597;SDS011;6364;53.590;9.956;2022-08-19T03:58:16;58.97;;;28.40;;
12597;SDS011;6364;53.590;9.956;2022-08-19T04:00:42;65.22;;;29.60;;
12597;SDS011;6364;53.590;9.956;2022-08-19T04:03:08;66.22;;;29.25;;
12597;SDS011;6364;53.590;9.956;2022-08-19T04:05:33;76.88;;;31.55;;
12597;SDS011;6364;53.590;9.956;2022-08-19T04:07:58;69.95;;;29.52;;
12597;SDS011;6364;53.590;9.956;2022-08-19T04:10:24;72.28;;;32.30;;
12597;SDS011;6364;53.590;9.956;2022-08-19T04:12:49;79.00;;;33.70;;
12597;SDS011;6364;53.590;9.956;2022-08-19T04:15:15;73.15;;;33.03;;
12597;SDS011;6364;53.590;9.956;2022-08-19T04:17:40;74.60;;;34.05;;
12597;SDS011;6364;53.590;9.956;2022-08-19T04:20:05;77.25;;;34.45;;
12597;SDS011;6364;53.590;9.956;2022-08-19T04:22:31;78.82;;;35.50;;
12597;SDS011;6364;53.590;9.956;2022-08-19T04:24:56;85.60;;;35.78;;
12597;SDS011;6364;53.590;9.956;2022-08-19T04:27:23;79.22;;;36.08;;
12597;SDS011;6364;53.590;9.956;2022-08-19T04:29:48;77.45;;;36.15;;
12597;SDS011;6364;53.590;9.956;2022-08-19T04:32:13;82.40;;;37.38;;
12597;SDS011;6364;53.590;9.956;2022-08-19T04:34:40;83.70;;;35.30;;
12597;SDS011;6364;53.590;9.956;2022-08-19T04:37:06;80.93;;;37.92;;
12597;SDS011;6364;53.590;9.956;2022-08-19T04:39:37;74.18;;;35.85;;
12597;SDS011;6364;53.590;9.956;2022-08-19T04:42:22;77.20;;;35.10;;
12597;SDS011;6364;53.590;9.956;2022-08-19T04:47:34;78.07;;;34.08;;
12597;SDS011;6364;53.590;9.956;2022-08-19T04:50:00;76.47;;;35.78;;
12597;SDS011;6364;53.590;9.956;2022-08-19T04:52:25;77.43;;;35.50;;
12597;SDS011;6364;53.590;9.956;2022-08-19T04:54:50;76.80;;;36.38;;
12597;SDS011;6364;53.590;9.956;2022-08-19T04:57:16;75.50;;;35.85;;
12597;SDS011;6364;53.590;9.956;2022-08-19T04:59:41;68.45;;;35.35;;
12597;SDS011;6364;53.590;9.956;2022-08-19T05:02:07;86.15;;;39.05;;
12597;SDS011;6364;53.590;9.956;2022-08-19T05:04:34;74.90;;;38.47;;
12597;SDS011;6364;53.590;9.956;2022-08-19T05:07:00;77.97;;;37.67;;
12597;SDS011;6364;53.590;9.956;2022-08-19T05:09:25;59.25;;;32.40;;
12597;SDS011;6364;53.590;9.956;2022-08-19T05:11:51;63.10;;;33.88;;
12597;SDS011;6364;53.590;9.956;2022-08-19T05:14:18;47.13;;;28.98;;
12597;SDS011;6364;53.590;9.956;2022-08-19T05:16:45;49.45;;;27.80;;
12597;SDS011;6364;53.590;9.956;2022-08-19T05:19:11;55.55;;;28.33;;
12597;SDS011;6364;53.590;9.956;2022-08-19T05:21:55;52.30;;;28.77;;
12597;SDS011;6364;53.590;9.956;2022-08-19T05:27:04;44.53;;;27.02;;
12597;SDS011;6364;53.590;9.956;2022-08-19T05:29:30;51.03;;;26.95;;
12597;SDS011;6364;53.590;9.956;2022-08-19T05:31:56;57.47;;;26.98;;
12597;SDS011;6364;53.590;9.956;2022-08-19T05:34:23;44.67;;;26.88;;
12597;SDS011;6364;53.590;9.956;2022-08-19T05:36:53;43.95;;;26.48;;
12597;SDS011;6364;53.590;9.956;2022-08-19T05:39:22;43.08;;;27.30;;
12597;SDS011;6364;53.590;9.956;2022-08-19T05:41:49;59.38;;;27.75;;
12597;SDS011;6364;53.590;9.956;2022-08-19T05:44:17;47.15;;;27.02;;
12597;SDS011;6364;53.590;9.956;2022-08-19T05:46:43;49.13;;;26.25;;
12597;SDS011;6364;53.590;9.956;2022-08-19T05:49:12;46.35;;;25.75;;
12597;SDS011;6364;53.590;9.956;2022-08-19T05:51:37;58.05;;;27.48;;
12597;SDS011;6364;53.590;9.956;2022-08-19T05:54:03;51.65;;;29.17;;
12597;SDS011;6364;53.590;9.956;2022-08-19T05:56:30;49.08;;;26.48;;
12597;SDS011;6364;53.590;9.956;2022-08-19T05:58:55;52.85;;;26.38;;
12597;SDS011;6364;53.590;9.956;2022-08-19T06:01:21;41.55;;;26.15;;
12597;SDS011;6364;53.590;9.956;2022-08-19T06:03:47;44.05;;;26.27;;
12597;SDS011;6364;53.590;9.956;2022-08-19T06:06:15;51.05;;;28.13;;
12597;SDS011;6364;53.590;9.956;2022-08-19T06:08:40;56.58;;;28.92;;
12597;SDS011;6364;53.590;9.956;2022-08-19T06:13:40;52.55;;;27.67;;
12597;SDS011;6364;53.590;9.956;2022-08-19T06:16:05;55.40;;;26.92;;
12597;SDS011;6364;53.590;9.956;2022-08-19T06:18:30;58.80;;;28.15;;
12597;SDS011;6364;53.590;9.956;2022-08-19T06:20:57;62.88;;;31.90;;
12597;SDS011;6364;53.590;9.956;2022-08-19T06:23:22;63.22;;;30.33;;
12597;SDS011;6364;53.590;9.956;2022-08-19T06:25:47;70.03;;;32.45;;
12597;SDS011;6364;53.590;9.956;2022-08-19T06:28:13;60.63;;;30.30;;
12597;SDS011;6364;53.590;9.956;2022-08-19T06:30:38;57.33;;;29.77;;
12597;SDS011;6364;53.590;9.956;2022-08-19T06:33:03;64.85;;;31.88;;
12597;SDS011;6364;53.590;9.956;2022-08-19T06:35:28;65.53;;;31.30;;
12597;SDS011;6364;53.590;9.956;2022-08-19T06:37:54;65.40;;;32.55;;
12597;SDS011;6364;53.590;9.956;2022-08-19T06:40:20;73.18;;;32.85;;
12597;SDS011;6364;53.590;9.956;2022-08-19T06:42:45;75.18;;;33.53;;
12597;SDS011;6364;53.590;9.956;2022-08-19T06:45:10;69.00;;;34.35;;
12597;SDS011;6364;53.590;9.956;2022-08-19T06:47:36;69.75;;;32.50;;
12597;SDS011;6364;53.590;9.956;2022-08-19T06:50:01;65.55;;;31.23;;
12597;SDS011;6364;53.590;9.956;2022-08-19T06:52:34;60.58;;;31.08;;
12597;SDS011;6364;53.590;9.956;2022-08-19T06:55:00;61.00;;;30.45;;
12597;SDS011;6364;53.590;9.956;2022-08-19T06:57:26;58.45;;;31.65;;
12597;SDS011;6364;53.590;9.956;2022-08-19T06:59:51;57.60;;;30.38;;
12597;SDS011;6364;53.590;9.956;2022-08-19T07:02:17;55.53;;;30.33;;
12597;SDS011;6364;53.590;9.956;2022-08-19T07:04:42;54.40;;;29.17;;
12597;SDS011;6364;53.590;9.956;2022-08-19T07:07:09;52.42;;;28.83;;
12597;SDS011;6364;53.590;9.956;2022-08-19T07:09:38;48.17;;;26.90;;
12597;SDS011;6364;53.590;9.956;2022-08-19T07:12:06;50.45;;;25.77;;
12597;SDS011;6364;53.590;9.956;2022-08-19T07:14:33;50.67;;;26.00;;
12597;SDS011;6364;53.590;9.956;2022-08-19T07:17:01;40.63;;;24.88;;
12597;SDS011;6364;53.590;9.956;2022-08-19T07:19:27;39.63;;;24.35;;
12597;SDS011;6364;53.590;9.956;2022-08-19T07:21:54;39.00;;;23.90;;
12597;SDS011;6364;53.590;9.956;2022-08-19T07:24:22;34.45;;;21.45;;
12597;SDS011;6364;53.590;9.956;2022-08-19T07:26:49;40.75;;;21.45;;
12597;SDS011;6364;53.590;9.956;2022-08-19T07:29:15;34.30;;;19.95;;
12597;SDS011;6364;53.590;9.956;2022-08-19T07:31:41;32.33;;;19.67;;
12597;SDS011;6364;53.590;9.956;2022-08-19T07:34:07;31.52;;;18.23;;
12597;SDS011;6364;53.590;9.956;2022-08-19T07:36:34;25.88;;;17.05;;
12597;SDS011;6364;53.590;9.956;2022-08-19T07:39:04;28.50;;;17.50;;
12597;SDS011;6364;53.590;9.956;2022-08-19T07:41:35;22.65;;;17.20;;
12597;SDS011;6364;53.590;9.956;2022-08-19T07:44:01;23.63;;;15.35;;
12597;SDS011;6364;53.590;9.956;2022-08-19T07:46:30;26.02;;;15.18;;
12597;SDS011;6364;53.590;9.956;2022-08-19T07:48:56;22.25;;;14.30;;
12597;SDS011;6364;53.590;9.956;2022-08-19T07:51:21;17.08;;;13.85;;
12597;SDS011;6364;53.590;9.956;2022-08-19T07:53:47;19.88;;;13.88;;
12597;SDS011;6364;53.590;9.956;2022-08-19T07:56:15;20.23;;;13.07;;
12597;SDS011;6364;53.590;9.956;2022-08-19T07:58:42;19.40;;;12.88;;
12597;SDS011;6364;53.590;9.956;2022-08-19T08:01:12;17.25;;;12.32;;
12597;SDS011;6364;53.590;9.956;2022-08-19T08:03:40;24.25;;;13.88;;
12597;SDS011;6364;53.590;9.956;2022-08-19T08:06:24;25.10;;;14.65;;
12597;SDS011;6364;53.590;9.956;2022-08-19T08:11:37;24.75;;;14.05;;
12597;SDS011;6364;53.590;9.956;2022-08-19T08:14:04;25.52;;;14.00;;
12597;SDS011;6364;53.590;9.956;2022-08-19T08:16:29;21.40;;;14.50;;
12597;SDS011;6364;53.590;9.956;2022-08-19T08:18:56;25.58;;;15.15;;
12597;SDS011;6364;53.590;9.956;2022-08-19T08:21:21;25.63;;;14.82;;
12597;SDS011;6364;53.590;9.956;2022-08-19T08:23:47;25.95;;;16.25;;
12597;SDS011;6364;53.590;9.956;2022-08-19T08:26:12;24.13;;;16.67;;
12597;SDS011;6364;53.590;9.956;2022-08-19T08:28:39;27.67;;;17.45;;
12597;SDS011;6364;53.590;9.956;2022-08-19T08:31:04;25.95;;;16.92;;
12597;SDS011;6364;53.590;9.956;2022-08-19T08:33:30;29.42;;;18.50;;
12597;SDS011;6364;53.590;9.956;2022-08-19T08:35:55;30.48;;;19.38;;
12597;SDS011;6364;53.590;9.956;2022-08-19T08:38:21;31.35;;;19.58;;
12597;SDS011;6364;53.590;9.956;2022-08-19T08:40:47;29.15;;;18.33;;
12597;SDS011;6364;53.590;9.956;2022-08-19T08:43:34;26.80;;;17.52;;
12597;SDS011;6364;53.590;9.956;2022-08-19T08:48:35;37.80;;;22.40;;
12597;SDS011;6364;53.590;9.956;2022-08-19T08:51:20;40.30;;;22.58;;
12597;SDS011;6364;53.590;9.956;2022-08-19T08:54:07;34.13;;;22.67;;
12597;SDS011;6364;53.590;9.956;2022-08-19T08:56:37;35.45;;;22.17;;
12597;SDS011;6364;53.590;9.956;2022-08-19T08:59:18;36.22;;;21.13;;
12597;SDS011;6364;53.590;9.956;2022-08-19T09:01:46;38.80;;;22.40;;
12597;SDS011;6364;53.590;9.956;2022-08-19T09:04:12;36.33;;;21.65;;
12597;SDS011;6364;53.590;9.956;2022-08-19T09:09:41;30.67;;;17.90;;
12597;SDS011;6364;53.590;9.956;2022-08-19T09:14:48;31.05;;;18.58;;
12597;SDS011;6364;53.590;9.956;2022-08-19T09:17:18;25.85;;;16.60;;
12597;SDS011;6364;53.590;9.956;2022-08-19T09:19:54;34.72;;;18.75;;
12597;SDS011;6364;53.590;9.956;2022-08-19T09:22:32;34.58;;;19.15;;
12597;SDS011;6364;53.590;9.956;2022-08-19T09:24:57;36.30;;;18.67;;
12597;SDS011;6364;53.590;9.956;2022-08-19T09:27:24;30.02;;;17.65;;
12597;SDS011;6364;53.590;9.956;2022-08-19T09:29:54;28.20;;;16.63;;
12597;SDS011;6364;53.590;9.956;2022-08-19T09:32:20;36.47;;;18.08;;
12597;SDS011;6364;53.590;9.956;2022-08-19T09:34:46;24.10;;;16.13;;
12597;SDS011;6364;53.590;9.956;2022-08-19T09:37:12;30.05;;;16.33;;
12597;SDS011;6364;53.590;9.956;2022-08-19T09:39:38;28.05;;;16.20;;
12597;SDS011;6364;53.590;9.956;2022-08-19T09:42:03;26.35;;;16.42;;
12597;SDS011;6364;53.590;9.956;2022-08-19T09:44:30;33.47;;;17.88;;
12597;SDS011;6364;53.590;9.956;2022-08-19T09:46:55;30.77;;;16.42;;
12597;SDS011;6364;53.590;9.956;2022-08-19T09:49:21;26.88;;;17.45;;
12597;SDS011;6364;53.590;9.956;2022-08-19T09:51:50;31.40;;;16.58;;
12597;SDS011;6364;53.590;9.956;2022-08-19T09:54:16;31.25;;;18.08;;
12597;SDS011;6364;53.590;9.956;2022-08-19T09:56:42;30.42;;;18.10;;
12597;SDS011;6364;53.590;9.956;2022-08-19T09:59:09;25.58;;;18.90;;
12597;SDS011;6364;53.590;9.956;2022-08-19T10:01:35;28.90;;;18.13;;
12597;SDS011;6364;53.590;9.956;2022-08-19T10:04:00;27.58;;;18.27;;
12597;SDS011;6364;53.590;9.956;2022-08-19T10:06:29;37.15;;;20.10;;
12597;SDS011;6364;53.590;9.956;2022-08-19T10:08:58;29.17;;;18.63;;
12597;SDS011;6364;53.590;9.956;2022-08-19T10:11:24;32.78;;;21.35;;
12597;SDS011;6364;53.590;9.956;2022-08-19T10:13:51;34.35;;;20.70;;
12597;SDS011;6364;53.590;9.956;2022-08-19T10:16:17;32.03;;;21.75;;
12597;SDS011;6364;53.590;9.956;2022-08-19T10:18:44;31.75;;;20.25;;
12597;SDS011;6364;53.590;9.956;2022-08-19T10:21:11;34.20;;;22.60;;
12597;SDS011;6364;53.590;9.956;2022-08-19T10:23:39;32.28;;;22.10;;
12597;SDS011;6364;53.590;9.956;2022-08-19T10:26:11;36.90;;;22.60;;
12597;SDS011;6364;53.590;9.956;2022-08-19T10:28:38;35.40;;;22.35;;
12597;SDS011;6364;53.590;9.956;2022-08-19T10:31:11;33.05;;;22.10;;
12597;SDS011;6364;53.590;9.956;2022-08-19T10:33:39;37.28;;;24.17;;
12597;SDS011;6364;53.590;9.956;2022-08-19T10:36:09;34.47;;;22.27;;
12597;SDS011;6364;53.590;9.956;2022-08-19T10:38:36;31.88;;;21.30;;
12597;SDS011;6364;53.590;9.956;2022-08-19T10:41:09;35.63;;;24.23;;
12597;SDS011;6364;53.590;9.956;2022-08-19T10:43:39;31.10;;;20.95;;
12597;SDS011;6364;53.590;9.956;2022-08-19T10:46:06;42.85;;;22.98;;
12597;SDS011;6364;53.590;9.956;2022-08-19T10:48:35;33.35;;;22.52;;
12597;SDS011;6364;53.590;9.956;2022-08-19T10:53:28;32.42;;;22.40;;
12597;SDS011;6364;53.590;9.956;2022-08-19T10:55:54;34.35;;;21.88;;
12597;SDS011;6364;53.590;9.956;2022-08-19T10:58:38;35.42;;;24.52;;
12597;SDS011;6364;53.590;9.956;2022-08-19T11:01:03;39.15;;;23.13;;
12597;SDS011;6364;53.590;9.956;2022-08-19T11:03:28;37.72;;;21.92;;
12597;SDS011;6364;53.590;9.956;2022-08-19T11:05:59;38.08;;;22.95;;
12597;SDS011;6364;53.590;9.956;2022-08-19T11:08:25;38.20;;;23.48;;
12597;SDS011;6364;53.590;9.956;2022-08-19T11:10:52;38.58;;;22.75;;
12597;SDS011;6364;53.590;9.956;2022-08-19T11:13:22;35.35;;;21.35;;
12597;SDS011;6364;53.590;9.956;2022-08-19T11:15:55;35.30;;;22.52;;
12597;SDS011;6364;53.590;9.956;2022-08-19T11:18:22;32.72;;;21.05;;
12597;SDS011;6364;53.590;9.956;2022-08-19T11:20:47;36.45;;;22.25;;
12597;SDS011;6364;53.590;9.956;2022-08-19T11:23:13;29.48;;;19.92;;
12597;SDS011;6364;53.590;9.956;2022-08-19T11:25:39;33.05;;;19.75;;
12597;SDS011;6364;53.590;9.956;2022-08-19T11:28:04;27.63;;;19.15;;
12597;SDS011;6364;53.590;9.956;2022-08-19T11:30:30;30.13;;;19.80;;
12597;SDS011;6364;53.590;9.956;2022-08-19T11:32:55;24.30;;;17.90;;
12597;SDS011;6364;53.590;9.956;2022-08-19T11:35:20;29.40;;;17.98;;
12597;SDS011;6364;53.590;9.956;2022-08-19T11:37:48;28.90;;;17.60;;
12597;SDS011;6364;53.590;9.956;2022-08-19T11:40:13;28.13;;;18.02;;
12597;SDS011;6364;53.590;9.956;2022-08-19T11:42:39;26.13;;;19.35;;
12597;SDS011;6364;53.590;9.956;2022-08-19T11:45:20;24.45;;;17.45;;
12597;SDS011;6364;53.590;9.956;2022-08-19T11:47:46;24.45;;;17.55;;
12597;SDS011;6364;53.590;9.956;2022-08-19T11:50:12;26.42;;;17.70;;
12597;SDS011;6364;53.590;9.956;2022-08-19T11:52:38;22.45;;;16.35;;
12597;SDS011;6364;53.590;9.956;2022-08-19T11:55:03;26.92;;;18.35;;
12597;SDS011;6364;53.590;9.956;2022-08-19T11:57:30;25.10;;;17.42;;
12597;SDS011;6364;53.590;9.956;2022-08-19T11:59:55;22.52;;;15.38;;
12597;SDS011;6364;53.590;9.956;2022-08-19T12:02:21;25.58;;;16.90;;
12597;SDS011;6364;53.590;9.956;2022-08-19T12:04:48;22.15;;;16.70;;
12597;SDS011;6364;53.590;9.956;2022-08-19T12:07:13;27.02;;;16.85;;
12597;SDS011;6364;53.590;9.956;2022-08-19T12:09:39;27.67;;;17.48;;
12597;SDS011;6364;53.590;9.956;2022-08-19T12:12:05;22.70;;;16.33;;
12597;SDS011;6364;53.590;9.956;2022-08-19T12:14:30;23.88;;;18.08;;
12597;SDS011;6364;53.590;9.956;2022-08-19T12:16:56;22.98;;;17.33;;
12597;SDS011;6364;53.590;9.956;2022-08-19T12:19:22;22.42;;;16.52;;
12597;SDS011;6364;53.590;9.956;2022-08-19T12:21:49;21.00;;;15.23;;
12597;SDS011;6364;53.590;9.956;2022-08-19T12:24:15;21.77;;;15.93;;
12597;SDS011;6364;53.590;9.956;2022-08-19T12:26:45;22.15;;;15.80;;
12597;SDS011;6364;53.590;9.956;2022-08-19T12:29:10;21.55;;;15.27;;
12597;SDS011;6364;53.590;9.956;2022-08-19T12:31:36;17.02;;;13.45;;
12597;SDS011;6364;53.590;9.956;2022-08-19T12:34:01;18.92;;;14.32;;
12597;SDS011;6364;53.590;9.956;2022-08-19T12:36:27;17.50;;;13.70;;
12597;SDS011;6364;53.590;9.956;2022-08-19T12:38:52;21.35;;;14.60;;
12597;SDS011;6364;53.590;9.956;2022-08-19T12:41:18;21.80;;;14.02;;
12597;SDS011;6364;53.590;9.956;2022-08-19T12:43:56;21.52;;;14.38;;
12597;SDS011;6364;53.590;9.956;2022-08-19T12:46:25;28.38;;;14.18;;
12597;SDS011;6364;53.590;9.956;2022-08-19T12:48:51;17.77;;;14.95;;
12597;SDS011;6364;53.590;9.956;2022-08-19T12:51:18;18.88;;;13.77;;
12597;SDS011;6364;53.590;9.956;2022-08-19T12:53:46;15.68;;;12.55;;
12597;SDS011;6364;53.590;9.956;2022-08-19T12:56:14;17.33;;;12.93;;
12597;SDS011;6364;53.590;9.956;2022-08-19T12:58:40;13.73;;;11.88;;
12597;SDS011;6364;53.590;9.956;2022-08-19T13:01:10;14.00;;;11.32;;
12597;SDS011;6364;53.590;9.956;2022-08-19T13:03:37;14.52;;;10.85;;
12597;SDS011;6364;53.590;9.956;2022-08-19T13:06:02;17.77;;;12.75;;
12597;SDS011;6364;53.590;9.956;2022-08-19T13:08:28;14.15;;;11.90;;
12597;SDS011;6364;53.590;9.956;2022-08-19T13:10:54;14.45;;;12.27;;
12597;SDS011;6364;53.590;9.956;2022-08-19T13:13:20;16.52;;;12.27;;
12597;SDS011;6364;53.590;9.956;2022-08-19T13:15:46;13.90;;;12.25;;
12597;SDS011;6364;53.590;9.956;2022-08-19T13:18:12;16.33;;;12.82;;
12597;SDS011;6364;53.590;9.956;2022-08-19T13:20:39;15.00;;;12.27;;
12597;SDS011;6364;53.590;9.956;2022-08-19T13:23:08;16.75;;;12.70;;
12597;SDS011;6364;53.590;9.956;2022-08-19T13:25:34;13.30;;;11.90;;
12597;SDS011;6364;53.590;9.956;2022-08-19T13:28:00;15.65;;;12.05;;
12597;SDS011;6364;53.590;9.956;2022-08-19T13:30:25;15.40;;;13.32;;
12597;SDS011;6364;53.590;9.956;2022-08-19T13:33:10;14.90;;;13.02;;
12597;SDS011;6364;53.590;9.956;2022-08-19T13:35:36;16.33;;;12.88;;
12597;SDS011;6364;53.590;9.956;2022-08-19T13:38:05;18.85;;;13.43;;
12597;SDS011;6364;53.590;9.956;2022-08-19T13:40:32;15.85;;;12.85;;
12597;SDS011;6364;53.590;9.956;2022-08-19T13:42:58;13.95;;;12.25;;
12597;SDS011;6364;53.590;9.956;2022-08-19T13:45:25;19.15;;;15.15;;
12597;SDS011;6364;53.590;9.956;2022-08-19T13:47:54;16.67;;;12.80;;
12597;SDS011;6364;53.590;9.956;2022-08-19T13:50:24;16.35;;;12.95;;
12597;SDS011;6364;53.590;9.956;2022-08-19T13:52:51;19.60;;;13.27;;
12597;SDS011;6364;53.590;9.956;2022-08-19T13:55:17;17.48;;;14.05;;
12597;SDS011;6364;53.590;9.956;2022-08-19T13:57:43;19.02;;;13.70;;
12597;SDS011;6364;53.590;9.956;2022-08-19T14:00:10;16.55;;;13.50;;
12597;SDS011;6364;53.590;9.956;2022-08-19T14:02:40;15.88;;;13.68;;
12597;SDS011;6364;53.590;9.956;2022-08-19T14:05:06;18.75;;;14.15;;
12597;SDS011;6364;53.590;9.956;2022-08-19T14:07:35;16.95;;;14.95;;
12597;SDS011;6364;53.590;9.956;2022-08-19T14:10:01;17.88;;;14.15;;
12597;SDS011;6364;53.590;9.956;2022-08-19T14:12:28;19.70;;;15.38;;
12597;SDS011;6364;53.590;9.956;2022-08-19T14:14:53;18.05;;;14.88;;
12597;SDS011;6364;53.590;9.956;2022-08-19T14:17:18;16.02;;;14.02;;
12597;SDS011;6364;53.590;9.956;2022-08-19T14:19:44;19.50;;;17.20;;
12597;SDS011;6364;53.590;9.956;2022-08-19T14:22:09;20.38;;;16.52;;
12597;SDS011;6364;53.590;9.956;2022-08-19T14:24:36;21.70;;;16.05;;
12597;SDS011;6364;53.590;9.956;2022-08-19T14:27:03;19.13;;;14.98;;
12597;SDS011;6364;53.590;9.956;2022-08-19T14:29:29;19.30;;;16.45;;
12597;SDS011;6364;53.590;9.956;2022-08-19T14:31:55;19.20;;;15.95;;
12597;SDS011;6364;53.590;9.956;2022-08-19T14:34:24;20.27;;;17.23;;
12597;SDS011;6364;53.590;9.956;2022-08-19T14:36:53;21.98;;;17.02;;
12597;SDS011;6364;53.590;9.956;2022-08-19T14:39:23;17.15;;;15.32;;
12597;SDS011;6364;53.590;9.956;2022-08-19T14:42:08;18.88;;;15.90;;
12597;SDS011;6364;53.590;9.956;2022-08-19T14:44:53;17.52;;;15.00;;
12597;SDS011;6364;53.590;9.956;2022-08-19T14:47:22;16.98;;;14.65;;
12597;SDS011;6364;53.590;9.956;2022-08-19T14:49:47;17.52;;;15.13;;
12597;SDS011;6364;53.590;9.956;2022-08-19T14:52:13;17.38;;;14.30;;
12597;SDS011;6364;53.590;9.956;2022-08-19T14:54:38;18.73;;;14.73;;